METAR Data
IDs: Format: Raw Decoded Include TAF

Data at: 1309 UTC 26 Feb 2021

LKMT 261300Z 23016KT CAVOK 15/07 Q1024 NOSIG